createdAt,value
2022-09-14T00:01:25.261Z,22.20
2022-09-14T00:04:00.448Z,22.20
2022-09-14T00:06:27.311Z,22.20
2022-09-14T00:08:54.678Z,22.20
2022-09-14T00:11:22.285Z,22.20
2022-09-14T00:13:49.371Z,22.20
2022-09-14T00:16:24.964Z,22.10
2022-09-14T00:18:57.187Z,22.10
2022-09-14T00:21:24.124Z,22.10
2022-09-14T00:23:50.823Z,22.10
2022-09-14T00:26:19.258Z,22.10
2022-09-14T00:28:50.674Z,22.10
2022-09-14T00:31:18.163Z,22.00
2022-09-14T00:33:49.358Z,22.00
2022-09-14T00:36:17.045Z,22.00
2022-09-14T00:38:43.804Z,22.00
2022-09-14T00:41:13.078Z,22.00
2022-09-14T00:44:01.631Z,22.00
2022-09-14T00:46:34.360Z,22.00
2022-09-14T00:49:01.711Z,22.00
2022-09-14T00:51:30.769Z,22.00
2022-09-14T00:53:57.418Z,22.00
2022-09-14T00:56:38.128Z,22.00
2022-09-14T00:59:18.271Z,21.90
2022-09-14T01:01:45.639Z,22.00
2022-09-14T01:04:12.349Z,22.00
2022-09-14T01:07:28.337Z,21.90
2022-09-14T01:10:17.924Z,21.90
2022-09-14T01:13:23.054Z,22.00
2022-09-14T01:16:03.048Z,21.90
2022-09-14T01:18:36.347Z,21.90
2022-09-14T01:21:49.684Z,21.90
2022-09-14T01:24:29.429Z,21.80
2022-09-14T01:27:22.388Z,21.80
2022-09-14T01:30:24.942Z,21.80
2022-09-14T01:33:19.564Z,21.80
2022-09-14T01:35:57.402Z,21.80
2022-09-14T01:38:29.360Z,21.80
2022-09-14T01:40:55.967Z,21.80
2022-09-14T01:43:43.438Z,21.80
2022-09-14T01:46:16.241Z,21.80
2022-09-14T01:49:16.384Z,21.80
2022-09-14T01:51:47.423Z,21.80
2022-09-14T01:54:18.499Z,21.80
2022-09-14T01:56:58.849Z,21.80
2022-09-14T01:59:33.093Z,21.70
2022-09-14T02:02:05.878Z,21.70
2022-09-14T02:04:43.835Z,21.70
2022-09-14T02:07:10.566Z,21.70
2022-09-14T02:09:37.248Z,21.70
2022-09-14T02:12:04.357Z,21.70
2022-09-14T02:14:31.215Z,21.70
2022-09-14T02:16:57.904Z,21.70
2022-09-14T02:19:25.395Z,21.70
2022-09-14T02:21:52.134Z,21.80
2022-09-14T02:24:18.824Z,21.70
2022-09-14T02:26:45.620Z,21.70
2022-09-14T02:29:17.884Z,21.70
2022-09-14T02:32:16.413Z,21.70
2022-09-14T02:35:22.638Z,21.70
2022-09-14T02:38:14.200Z,21.70
2022-09-14T02:40:45.524Z,21.70
2022-09-14T02:43:22.156Z,21.70
2022-09-14T02:46:21.209Z,21.70
2022-09-14T02:48:49.109Z,21.60
2022-09-14T02:51:26.697Z,21.60
2022-09-14T02:54:04.767Z,21.60
2022-09-14T02:56:31.606Z,21.60
2022-09-14T02:59:04.986Z,21.60
2022-09-14T03:01:43.131Z,21.60
2022-09-14T03:04:09.787Z,21.60
2022-09-14T03:06:46.911Z,21.60
2022-09-14T03:09:15.617Z,21.60
2022-09-14T03:11:46.168Z,21.60
2022-09-14T03:14:45.816Z,21.60
2022-09-14T03:17:37.788Z,21.60
2022-09-14T03:20:17.433Z,21.60
2022-09-14T03:22:45.406Z,21.60
2022-09-14T03:25:12.314Z,21.60
2022-09-14T03:27:41.905Z,21.60
2022-09-14T03:30:09.500Z,21.60
2022-09-14T03:32:36.225Z,21.60
2022-09-14T03:35:02.876Z,21.60
2022-09-14T03:37:29.545Z,21.60
2022-09-14T03:39:56.195Z,21.60
2022-09-14T03:42:22.966Z,21.60
2022-09-14T03:44:49.569Z,21.60
2022-09-14T03:47:16.142Z,21.50
2022-09-14T03:49:42.714Z,21.50
2022-09-14T03:52:09.302Z,21.50
2022-09-14T03:54:35.889Z,21.50
2022-09-14T03:57:02.488Z,21.50
2022-09-14T03:59:29.431Z,21.50
2022-09-14T04:01:56.250Z,21.50
2022-09-14T04:04:23.002Z,21.50
2022-09-14T04:06:49.581Z,21.60
2022-09-14T04:09:16.198Z,21.50
2022-09-14T04:11:42.792Z,21.50
2022-09-14T04:14:09.399Z,21.50
2022-09-14T04:16:36.010Z,21.50
2022-09-14T04:19:03.076Z,21.50
2022-09-14T04:21:29.698Z,21.50
2022-09-14T04:24:13.969Z,21.50
2022-09-14T04:26:41.024Z,21.50
2022-09-14T04:29:09.018Z,21.40
2022-09-14T04:31:36.665Z,21.40
2022-09-14T04:34:03.345Z,21.40
2022-09-14T04:36:31.584Z,21.40
2022-09-14T04:39:03.511Z,21.40
2022-09-14T04:41:30.998Z,21.40
2022-09-14T04:43:57.853Z,21.40
2022-09-14T04:46:26.834Z,21.40
2022-09-14T04:48:53.587Z,21.30
2022-09-14T04:51:21.982Z,21.40
2022-09-14T04:53:50.314Z,21.30
2022-09-14T04:56:17.077Z,21.30
2022-09-14T04:58:48.318Z,21.40
2022-09-14T05:01:19.984Z,21.30
2022-09-14T05:03:46.807Z,21.30
2022-09-14T05:06:21.711Z,21.40
2022-09-14T05:08:50.201Z,21.40
2022-09-14T05:11:19.379Z,21.40
2022-09-14T05:13:49.771Z,21.30
2022-09-14T05:16:33.318Z,21.40
2022-09-14T05:19:02.923Z,21.30
2022-09-14T05:21:30.868Z,21.40
2022-09-14T05:23:59.397Z,21.30
2022-09-14T05:26:26.870Z,21.30
2022-09-14T05:28:54.671Z,21.30
2022-09-14T05:31:21.866Z,21.30
2022-09-14T05:33:48.663Z,21.30
2022-09-14T05:36:15.420Z,21.30
2022-09-14T05:38:42.421Z,21.30
2022-09-14T05:41:12.993Z,21.30
2022-09-14T05:43:39.973Z,21.30
2022-09-14T05:46:14.887Z,21.30
2022-09-14T05:48:41.683Z,21.30
2022-09-14T05:51:11.133Z,21.30
2022-09-14T05:53:37.924Z,21.30
2022-09-14T05:56:06.755Z,21.30
2022-09-14T05:58:33.855Z,21.30
2022-09-14T06:01:07.453Z,21.30
2022-09-14T06:03:35.998Z,21.30
2022-09-14T06:06:05.190Z,21.30
2022-09-14T06:08:32.141Z,21.30
2022-09-14T06:11:07.459Z,21.30
2022-09-14T06:13:34.629Z,21.40
2022-09-14T06:16:02.765Z,21.40
2022-09-14T06:18:31.613Z,21.40
2022-09-14T06:21:03.058Z,21.40
2022-09-14T06:23:31.982Z,21.40
2022-09-14T06:26:00.107Z,21.40
2022-09-14T06:28:27.137Z,21.40
2022-09-14T06:30:54.217Z,21.40
2022-09-14T06:33:21.065Z,21.50
2022-09-14T06:36:01.038Z,21.50
2022-09-14T06:38:27.979Z,21.50
2022-09-14T06:40:57.844Z,21.50
2022-09-14T06:43:27.562Z,21.50
2022-09-14T06:45:58.768Z,21.50
2022-09-14T06:48:28.979Z,21.50
2022-09-14T06:50:55.852Z,21.50
2022-09-14T06:53:22.652Z,21.60
2022-09-14T06:55:49.482Z,21.50
2022-09-14T06:58:16.318Z,21.60
2022-09-14T07:00:45.033Z,21.60
2022-09-14T07:03:13.931Z,21.60
2022-09-14T07:05:40.688Z,21.60
2022-09-14T07:08:11.936Z,21.70
2022-09-14T07:10:39.294Z,21.70
2022-09-14T07:13:08.025Z,21.70
2022-09-14T07:15:34.929Z,21.70
2022-09-14T07:18:02.784Z,21.70
2022-09-14T07:20:30.598Z,21.80
2022-09-14T07:23:00.442Z,21.80
2022-09-14T07:25:27.108Z,21.80
2022-09-14T07:27:54.860Z,21.90
2022-09-14T07:30:25.051Z,21.90
2022-09-14T07:32:55.464Z,21.90
2022-09-14T07:35:22.131Z,22.00
2022-09-14T07:37:48.825Z,22.00
2022-09-14T07:40:15.663Z,22.00
2022-09-14T07:42:43.499Z,22.00
2022-09-14T07:45:10.445Z,22.10
2022-09-14T07:47:41.264Z,22.10
2022-09-14T07:50:14.352Z,22.00
2022-09-14T07:52:41.081Z,22.00
2022-09-14T07:55:08.637Z,22.00
2022-09-14T07:57:55.279Z,22.00
2022-09-14T08:00:22.030Z,22.00
2022-09-14T08:02:52.878Z,22.00
2022-09-14T08:05:21.500Z,21.90
2022-09-14T08:07:55.507Z,21.90
2022-09-14T08:10:22.843Z,21.90
2022-09-14T08:12:53.360Z,21.90
2022-09-14T08:15:24.140Z,21.90
2022-09-14T08:17:54.551Z,21.90
2022-09-14T08:20:21.243Z,21.80
2022-09-14T08:22:47.975Z,21.80
2022-09-14T08:25:14.739Z,21.80
2022-09-14T08:27:41.623Z,21.90
2022-09-14T08:30:10.226Z,21.80
2022-09-14T08:32:37.008Z,21.80
2022-09-14T08:35:05.368Z,21.90
2022-09-14T08:37:33.121Z,21.90
2022-09-14T08:40:01.187Z,21.80
2022-09-14T08:42:27.906Z,21.80
2022-09-14T08:44:59.263Z,21.90
2022-09-14T08:47:38.973Z,21.90
2022-09-14T08:50:18.280Z,21.90
2022-09-14T08:52:45.591Z,21.90
2022-09-14T08:55:21.557Z,21.90
2022-09-14T08:57:56.977Z,21.80
2022-09-14T09:00:30.994Z,21.90
2022-09-14T09:03:19.453Z,21.90
2022-09-14T09:05:54.593Z,21.90
2022-09-14T09:08:27.534Z,21.90
2022-09-14T09:10:54.769Z,22.00
2022-09-14T09:13:24.277Z,22.00
2022-09-14T09:15:52.929Z,22.00
2022-09-14T09:18:37.062Z,22.00
2022-09-14T09:21:24.281Z,22.10
2022-09-14T09:23:51.068Z,22.10
2022-09-14T09:26:31.324Z,22.20
2022-09-14T09:29:00.292Z,22.20
2022-09-14T09:31:35.891Z,22.20
2022-09-14T09:34:02.806Z,22.20
2022-09-14T09:36:37.398Z,22.30
2022-09-14T09:39:05.486Z,22.30
2022-09-14T09:41:56.935Z,22.40
2022-09-14T09:44:23.735Z,22.40
2022-09-14T09:47:00.174Z,22.50
2022-09-14T09:49:36.832Z,22.50
2022-09-14T09:52:11.159Z,22.60
2022-09-14T09:54:38.321Z,22.70
2022-09-14T09:57:06.878Z,22.70
2022-09-14T09:59:38.516Z,22.70
2022-09-14T10:02:23.575Z,22.70
2022-09-14T10:05:02.309Z,22.70
2022-09-14T10:07:31.260Z,22.70
2022-09-14T10:10:02.992Z,22.70
2022-09-14T10:12:31.429Z,22.70
2022-09-14T10:15:28.049Z,22.70
2022-09-14T10:18:08.976Z,22.70
2022-09-14T10:20:41.974Z,22.70
2022-09-14T10:23:18.429Z,22.60
2022-09-14T10:25:47.026Z,22.70
2022-09-14T10:28:26.800Z,22.70
2022-09-14T10:31:02.789Z,22.70
2022-09-14T10:33:29.818Z,22.70
2022-09-14T10:36:11.581Z,22.70
2022-09-14T10:39:06.140Z,22.70
2022-09-14T10:41:53.977Z,22.70
2022-09-14T10:44:33.137Z,22.70
2022-09-14T10:47:04.400Z,22.80
2022-09-14T10:49:37.971Z,22.70
2022-09-14T10:52:21.758Z,22.80
2022-09-14T10:55:17.143Z,22.70
2022-09-14T10:57:54.068Z,22.70
2022-09-14T11:00:20.970Z,22.80
2022-09-14T11:03:02.916Z,22.70
2022-09-14T11:05:57.333Z,22.70
2022-09-14T11:08:35.914Z,22.60
2022-09-14T11:11:40.229Z,22.60
2022-09-14T11:14:23.164Z,22.60
2022-09-14T11:17:14.788Z,22.60
2022-09-14T11:20:03.871Z,22.60
2022-09-14T11:22:50.614Z,22.60
2022-09-14T11:26:20.783Z,22.60
2022-09-14T11:28:54.283Z,22.60
2022-09-14T11:31:34.412Z,22.60
2022-09-14T11:34:28.890Z,22.60
2022-09-14T11:37:14.469Z,22.60
2022-09-14T11:39:45.088Z,22.70
2022-09-14T11:42:23.137Z,22.70
2022-09-14T11:44:55.495Z,22.70
2022-09-14T11:47:38.880Z,22.70
2022-09-14T11:50:19.526Z,22.80
2022-09-14T11:52:46.394Z,22.80
2022-09-14T11:55:18.648Z,22.90
2022-09-14T11:57:46.107Z,22.90
2022-09-14T12:00:25.306Z,23.00
2022-09-14T12:03:13.295Z,23.10
2022-09-14T12:05:40.913Z,23.10
2022-09-14T12:08:35.674Z,23.20
2022-09-14T12:11:31.352Z,23.20
2022-09-14T12:14:32.823Z,23.20
2022-09-14T12:17:17.296Z,23.20
2022-09-14T12:19:52.399Z,23.20
2022-09-14T12:22:25.463Z,23.20
2022-09-14T12:25:10.532Z,23.20
2022-09-14T12:27:41.091Z,23.10
2022-09-14T12:30:41.359Z,23.10
2022-09-14T12:33:31.351Z,23.00
2022-09-14T12:36:04.298Z,23.00
2022-09-14T12:38:31.063Z,23.00
2022-09-14T12:41:20.869Z,23.00
2022-09-14T12:43:51.090Z,23.00
2022-09-14T12:46:24.148Z,23.00
2022-09-14T12:48:55.910Z,23.10
2022-09-14T12:51:32.086Z,23.10
2022-09-14T12:53:59.199Z,23.10
2022-09-14T12:56:42.213Z,23.20
2022-09-14T12:59:29.215Z,23.20
2022-09-14T13:02:20.555Z,23.20
2022-09-14T13:04:49.601Z,23.20
2022-09-14T13:07:19.057Z,23.20
2022-09-14T13:09:49.872Z,23.20
2022-09-14T13:12:24.174Z,23.20
2022-09-14T13:14:59.632Z,23.30
2022-09-14T13:17:35.503Z,23.30
2022-09-14T13:20:07.557Z,23.40
2022-09-14T13:22:35.348Z,23.40
2022-09-14T13:25:02.523Z,23.50
2022-09-14T13:27:34.718Z,23.50
2022-09-14T13:30:19.157Z,23.60
2022-09-14T13:32:57.451Z,23.50
2022-09-14T13:35:38.807Z,23.50
2022-09-14T13:38:22.721Z,23.50
2022-09-14T13:40:51.930Z,23.40
2022-09-14T13:43:23.940Z,23.40
2022-09-14T13:45:51.108Z,23.40
2022-09-14T13:48:18.781Z,23.20
2022-09-14T13:50:52.789Z,23.30
2022-09-14T13:53:48.375Z,23.20
2022-09-14T13:56:31.568Z,23.20
2022-09-14T13:59:11.052Z,23.10
2022-09-14T14:01:59.380Z,23.10
2022-09-14T14:04:36.395Z,23.00
2022-09-14T14:07:24.773Z,23.00
2022-09-14T14:09:54.088Z,23.00
2022-09-14T14:12:34.002Z,23.00
2022-09-14T14:15:02.071Z,22.90
2022-09-14T14:17:28.729Z,23.00
2022-09-14T14:20:21.152Z,23.10
2022-09-14T14:22:59.065Z,23.10
2022-09-14T14:25:40.984Z,23.20
2022-09-14T14:28:23.654Z,23.20
2022-09-14T14:30:50.974Z,23.20
2022-09-14T14:33:19.755Z,23.20
2022-09-14T14:35:52.814Z,23.20
2022-09-14T14:38:20.036Z,23.20
2022-09-14T14:40:50.446Z,23.30
2022-09-14T14:43:26.916Z,23.30
2022-09-14T14:46:16.499Z,23.20
2022-09-14T14:49:02.011Z,23.30
2022-09-14T14:51:28.765Z,23.30
2022-09-14T14:54:02.521Z,23.30
2022-09-14T14:56:29.805Z,23.30
2022-09-14T14:59:02.073Z,23.20
2022-09-14T15:01:36.391Z,23.20
2022-09-14T15:04:03.081Z,23.20
2022-09-14T15:06:29.919Z,23.20
2022-09-14T15:08:58.754Z,23.20
2022-09-14T15:11:30.583Z,23.20
2022-09-14T15:13:58.397Z,23.20
2022-09-14T15:16:26.192Z,23.20
2022-09-14T15:18:55.500Z,23.10
2022-09-14T15:21:31.746Z,23.10
2022-09-14T15:23:58.979Z,23.10
2022-09-14T15:26:29.080Z,23.00
2022-09-14T15:28:55.757Z,23.00
2022-09-14T15:31:23.655Z,23.00
2022-09-14T15:33:55.646Z,23.00
2022-09-14T15:36:58.880Z,22.90
2022-09-14T15:39:26.998Z,22.90
2022-09-14T15:41:54.011Z,22.90
2022-09-14T15:44:24.052Z,22.90
2022-09-14T15:46:51.057Z,22.90
2022-09-14T15:49:19.860Z,22.80
2022-09-14T15:51:47.522Z,22.80
2022-09-14T15:54:14.393Z,22.90
2022-09-14T15:56:41.227Z,22.80
2022-09-14T15:59:08.653Z,22.90
2022-09-14T16:01:36.269Z,22.80
2022-09-14T16:04:09.648Z,22.80
2022-09-14T16:06:38.733Z,22.80
2022-09-14T16:09:13.847Z,22.80
2022-09-14T16:11:41.524Z,22.80
2022-09-14T16:14:10.436Z,22.80
2022-09-14T16:19:58.508Z,22.70
2022-09-14T16:22:30.810Z,22.80
2022-09-14T16:25:00.651Z,22.70
2022-09-14T16:27:28.700Z,22.70
2022-09-14T16:29:55.791Z,22.70
2022-09-14T16:32:28.583Z,22.70
2022-09-14T16:34:55.845Z,22.70
2022-09-14T16:37:31.901Z,22.60
2022-09-14T16:40:14.501Z,22.60
2022-09-14T16:42:48.980Z,22.60
2022-09-14T16:45:19.552Z,22.60
2022-09-14T16:48:15.025Z,22.60
2022-09-14T16:50:50.023Z,22.60
2022-09-14T16:53:29.745Z,22.50
2022-09-14T16:56:24.144Z,22.50
2022-09-14T16:58:54.404Z,22.50
2022-09-14T17:01:31.685Z,22.50
2022-09-14T17:04:32.318Z,22.50
2022-09-14T17:07:05.258Z,22.40
2022-09-14T17:09:36.294Z,22.40
2022-09-14T17:12:15.941Z,22.40
2022-09-14T17:14:50.272Z,22.40
2022-09-14T17:18:26.446Z,22.40
2022-09-14T17:21:50.603Z,22.40
2022-09-14T17:24:20.668Z,22.40
2022-09-14T17:26:51.386Z,22.30
2022-09-14T17:29:47.980Z,22.40
2022-09-14T17:32:25.284Z,22.30
2022-09-14T17:35:00.293Z,22.30
2022-09-14T17:37:29.193Z,22.30
2022-09-14T17:40:12.128Z,22.30
2022-09-14T17:45:58.862Z,22.30
2022-09-14T17:48:39.078Z,22.30
2022-09-14T17:51:18.094Z,22.30
2022-09-14T17:53:50.834Z,22.30
2022-09-14T17:56:20.905Z,22.30
2022-09-14T17:59:09.223Z,22.40
2022-09-14T18:01:46.305Z,22.30
2022-09-14T18:04:23.297Z,22.30
2022-09-14T18:06:50.429Z,22.20
2022-09-14T18:09:32.020Z,22.20
2022-09-14T18:12:11.693Z,22.20
2022-09-14T18:15:00.760Z,22.20
2022-09-14T18:17:30.622Z,22.10
2022-09-14T18:19:58.710Z,22.10
2022-09-14T18:22:46.743Z,22.10
2022-09-14T18:25:14.091Z,22.00
2022-09-14T18:27:41.430Z,22.00
2022-09-14T18:30:26.158Z,22.00
2022-09-14T18:33:08.476Z,22.00
2022-09-14T18:35:59.705Z,21.90
2022-09-14T18:38:27.722Z,21.90
2022-09-14T18:41:30.985Z,21.90
2022-09-14T18:43:59.202Z,21.80
2022-09-14T18:46:28.422Z,21.80
2022-09-14T18:49:01.967Z,21.80
2022-09-14T18:51:53.664Z,21.80
2022-09-14T18:54:24.255Z,21.80
2022-09-14T18:56:55.293Z,21.80
2022-09-14T19:03:03.505Z,21.60
2022-09-14T19:12:17.320Z,21.50
2022-09-14T19:14:44.353Z,21.40
2022-09-14T19:17:11.406Z,21.40
2022-09-14T19:19:39.666Z,21.40
2022-09-14T19:22:09.693Z,21.40
2022-09-14T19:28:42.061Z,21.40
2022-09-14T19:34:57.217Z,21.40
2022-09-14T19:37:37.422Z,21.40
2022-09-14T19:40:19.948Z,21.40
2022-09-14T19:43:14.013Z,21.40
2022-09-14T19:45:43.196Z,21.40
2022-09-14T19:48:21.127Z,21.30
2022-09-14T19:50:48.962Z,21.40
2022-09-14T19:53:21.761Z,21.40
2022-09-14T19:55:51.897Z,21.40
2022-09-14T19:58:18.837Z,21.40
2022-09-14T20:00:53.389Z,21.50
2022-09-14T20:03:58.565Z,21.50
2022-09-14T20:09:10.328Z,21.50
2022-09-14T20:11:38.038Z,21.40
2022-09-14T20:14:05.545Z,21.40
2022-09-14T20:16:33.286Z,21.40
2022-09-14T20:19:04.907Z,21.40
2022-09-14T20:21:31.471Z,21.40
2022-09-14T20:24:16.710Z,21.40
2022-09-14T20:26:47.816Z,21.40
2022-09-14T20:29:15.186Z,21.40
2022-09-14T20:31:41.787Z,21.40
2022-09-14T20:34:08.396Z,21.40
2022-09-14T20:36:35.040Z,21.30
2022-09-14T20:39:01.727Z,21.30
2022-09-14T20:41:30.479Z,21.20
2022-09-14T20:43:57.762Z,21.20
2022-09-14T20:46:31.604Z,21.20
2022-09-14T20:48:58.417Z,21.10
2022-09-14T20:51:25.287Z,21.10
2022-09-14T20:53:52.073Z,21.10
2022-09-14T20:56:21.989Z,21.10
2022-09-14T20:58:48.709Z,21.10
2022-09-14T21:01:17.095Z,21.10
2022-09-14T21:03:44.908Z,21.10
2022-09-14T21:06:16.687Z,21.10
2022-09-14T21:08:43.395Z,21.10
2022-09-14T21:11:15.921Z,21.10
2022-09-14T21:13:42.674Z,21.10
2022-09-14T21:16:14.025Z,21.10
2022-09-14T21:18:41.054Z,21.10
2022-09-14T21:21:10.244Z,21.10
2022-09-14T21:23:36.845Z,21.10
2022-09-14T21:26:04.413Z,21.10
2022-09-14T21:28:31.163Z,21.10
2022-09-14T21:31:04.042Z,21.10
2022-09-14T21:33:32.472Z,21.10
2022-09-14T21:36:22.426Z,21.10
2022-09-14T21:38:49.924Z,21.10
2022-09-14T21:41:16.647Z,21.10
2022-09-14T21:43:43.274Z,21.10
2022-09-14T21:46:10.099Z,21.00
2022-09-14T21:48:37.072Z,21.00
2022-09-14T21:51:07.808Z,21.00
2022-09-14T21:53:34.649Z,21.00
2022-09-14T21:56:05.594Z,21.00
2022-09-14T21:58:32.287Z,21.00
2022-09-14T22:00:59.808Z,20.90
2022-09-14T22:03:26.551Z,20.90
2022-09-14T22:05:56.951Z,20.90
2022-09-14T22:08:23.550Z,20.90
2022-09-14T22:10:50.131Z,20.90
2022-09-14T22:13:17.125Z,20.90
2022-09-14T22:15:43.868Z,20.90
2022-09-14T22:18:10.455Z,20.90
2022-09-14T22:20:37.012Z,20.90
2022-09-14T22:23:03.582Z,20.90
2022-09-14T22:25:30.180Z,21.00
2022-09-14T22:27:56.747Z,21.00
2022-09-14T22:30:23.327Z,21.00
2022-09-14T22:32:49.886Z,21.00
2022-09-14T22:35:16.464Z,21.00
2022-09-14T22:37:44.584Z,21.00
2022-09-14T22:40:11.222Z,20.90
2022-09-14T22:42:37.878Z,20.90
2022-09-14T22:45:04.677Z,20.90
2022-09-14T22:47:31.284Z,20.90
2022-09-14T22:49:57.864Z,20.90
2022-09-14T22:52:24.502Z,20.90
2022-09-14T22:54:51.047Z,20.90
2022-09-14T22:57:18.121Z,20.80
2022-09-14T22:59:44.697Z,20.80
2022-09-14T23:02:11.395Z,20.80
2022-09-14T23:04:37.983Z,20.80
2022-09-14T23:07:06.662Z,20.90
2022-09-14T23:09:33.227Z,20.90
2022-09-14T23:11:59.937Z,20.90
2022-09-14T23:14:26.602Z,20.90
2022-09-14T23:16:53.231Z,20.90
2022-09-14T23:19:19.808Z,20.90
2022-09-14T23:21:46.540Z,21.00
2022-09-14T23:24:13.109Z,21.00
2022-09-14T23:26:39.688Z,21.00
2022-09-14T23:29:11.377Z,21.00
2022-09-14T23:31:37.962Z,21.00
2022-09-14T23:34:04.828Z,21.00
2022-09-14T23:36:31.572Z,20.90
2022-09-14T23:38:58.347Z,20.90
2022-09-14T23:41:25.376Z,20.90
2022-09-14T23:43:52.215Z,20.90
2022-09-14T23:46:18.924Z,20.90
2022-09-14T23:48:45.613Z,20.90
2022-09-14T23:51:12.438Z,20.90
2022-09-14T23:53:39.114Z,20.90
2022-09-14T23:56:05.826Z,20.90
2022-09-14T23:58:32.454Z,20.90
